Time;durP1;ratioP1;P1;durP2;ratioP2;P2;SDS_P1;SDS_P2;PMS_P1;PMS_P2;Temp;Humidity;BMP_temperature;BMP_pressure;BME280_temperature;BME280_humidity;BME280_pressure;Samples;Min_cycle;Max_cycle;Signal;HPM_P1;HPM_P2
2022/08/02 00:01:34;;;;;;;4.03;1.25;;;26.10;97.90;;;;;;5051737;28;20094;-69
2022/08/02 00:04:00;;;;;;;3.58;1.30;;;26.10;97.60;;;;;;5051611;28;20116;-70
2022/08/02 00:06:26;;;;;;;3.63;1.20;;;26.10;97.50;;;;;;5051236;28;20503;-70
2022/08/02 00:08:53;;;;;;;2.30;1.27;;;26.20;97.30;;;;;;5050861;28;20112;-69
2022/08/02 00:11:19;;;;;;;2.17;1.20;;;26.20;97.60;;;;;;5051254;28;20107;-69
2022/08/02 00:13:45;;;;;;;3.25;1.13;;;26.20;97.30;;;;;;5051134;28;20180;-69
2022/08/02 00:16:13;;;;;;;4.28;1.30;;;26.20;97.20;;;;;;5050922;28;20091;-69
2022/08/02 00:18:39;;;;;;;2.10;1.20;;;26.10;97.10;;;;;;5051174;28;20027;-69
2022/08/02 00:21:05;;;;;;;3.50;1.20;;;26.10;97.10;;;;;;5051121;28;20025;-70
2022/08/02 00:23:31;;;;;;;4.30;1.50;;;26.10;96.80;;;;;;5051016;28;20404;-70
2022/08/02 00:25:57;;;;;;;7.30;1.50;;;26.10;96.70;;;;;;5051333;28;20131;-70
2022/08/02 00:28:24;;;;;;;2.50;1.35;;;26.10;96.90;;;;;;5050650;28;20033;-70
2022/08/02 00:30:51;;;;;;;3.13;1.20;;;26.10;96.80;;;;;;5051095;28;20162;-70
2022/08/02 00:33:17;;;;;;;;;;;26.00;96.90;;;;;;5049752;28;20029;-70
2022/08/02 00:35:46;;;;;;;2.65;1.25;;;26.00;97.30;;;;;;5051071;28;19908;-70
2022/08/02 00:38:12;;;;;;;4.15;1.30;;;26.10;96.80;;;;;;5051052;28;20040;-70
2022/08/02 00:40:39;;;;;;;4.57;1.20;;;26.10;97.20;;;;;;5050694;28;20029;-70
2022/08/02 00:43:09;;;;;;;;;;;26.10;96.50;;;;;;5051484;28;20449;-71
2022/08/02 00:45:37;;;;;;;3.38;1.10;;;26.10;96.50;;;;;;5050677;28;19904;-70
2022/08/02 00:48:05;;;;;;;2.33;1.08;;;26.00;96.50;;;;;;5050755;28;20029;-70
2022/08/02 00:50:32;;;;;;;3.03;1.10;;;25.90;96.60;;;;;;5050605;28;20021;-70
2022/08/02 00:52:59;;;;;;;3.05;1.10;;;25.90;96.50;;;;;;5050851;28;20031;-70
2022/08/02 00:55:25;;;;;;;2.30;1.10;;;25.90;96.30;;;;;;5050869;28;20025;-70
2022/08/02 00:57:52;;;;;;;;;;;25.80;96.40;;;;;;5049381;28;20033;-70
2022/08/02 01:00:18;;;;;;;2.97;1.20;;;25.80;96.40;;;;;;5050583;28;19984;-69
2022/08/02 01:02:44;;;;;;;2.75;1.17;;;25.80;96.60;;;;;;5050845;28;20028;-70
2022/08/02 01:05:10;;;;;;;2.55;1.17;;;25.80;96.40;;;;;;5050805;28;20534;-70
2022/08/02 01:07:37;;;;;;;3.40;1.20;;;25.80;96.40;;;;;;5050385;28;20040;-70
2022/08/02 01:10:04;;;;;;;5.47;1.20;;;25.90;96.50;;;;;;5050619;28;20022;-69
2022/08/02 01:12:30;;;;;;;4.13;1.27;;;25.80;96.50;;;;;;5050438;28;20021;-69
2022/08/02 01:15:00;;;;;;;2.67;1.13;;;25.80;96.50;;;;;;5050663;28;20418;-69
2022/08/02 01:17:50;;;;;;;2.38;1.20;;;25.70;96.60;;;;;;5050642;28;20040;-69
2022/08/02 01:20:41;;;;;;;3.30;1.10;;;25.70;96.70;;;;;;5051218;28;20445;-69
2022/08/02 01:23:14;;;;;;;8.43;1.23;;;25.70;96.60;;;;;;5054702;28;20025;-70
2022/08/02 01:26:18;;;;;;;5.07;1.40;;;25.70;96.80;;;;;;5054577;28;20045;-70
2022/08/02 01:29:17;;;;;;;1.90;0.95;;;25.70;96.50;;;;;;5054107;28;20098;-70
2022/08/02 01:32:03;;;;;;;2.97;1.38;;;25.60;96.40;;;;;;5051042;28;20454;-70
2022/08/02 01:34:33;;;;;;;3.55;1.30;;;25.50;96.60;;;;;;5054378;28;20029;-70
2022/08/02 01:37:23;;;;;;;2.30;1.15;;;25.50;96.50;;;;;;5053991;28;20109;-70
2022/08/02 01:39:54;;;;;;;2.33;1.10;;;25.50;96.50;;;;;;5054155;28;20420;-70
2022/08/02 01:42:23;;;;;;;2.63;1.20;;;25.50;96.60;;;;;;5054136;28;20021;-71
2022/08/02 01:44:52;;;;;;;4.32;1.02;;;25.50;96.70;;;;;;5053959;28;20362;-70
2022/08/02 01:47:26;;;;;;;3.25;1.20;;;25.60;96.50;;;;;;5053730;28;20021;-70
2022/08/02 01:49:57;;;;;;;3.95;1.20;;;25.50;96.60;;;;;;5054091;28;20060;-70
2022/08/02 01:52:28;;;;;;;2.25;1.20;;;25.60;96.60;;;;;;5053887;28;20024;-70
2022/08/02 01:54:57;;;;;;;1.90;1.08;;;25.60;96.80;;;;;;5053986;28;20025;-70
2022/08/02 01:57:25;;;;;;;3.80;1.20;;;25.60;96.50;;;;;;5053865;28;20064;-70
2022/08/02 01:59:55;;;;;;;2.55;1.10;;;25.70;96.40;;;;;;5053388;28;20025;-69
2022/08/02 02:02:22;;;;;;;2.40;1.10;;;25.70;96.40;;;;;;5054131;28;20303;-70
2022/08/02 02:04:50;;;;;;;2.72;1.10;;;25.70;96.50;;;;;;5053406;28;20074;-70
2022/08/02 02:07:19;;;;;;;3.50;1.17;;;25.70;96.40;;;;;;5053493;28;20080;-70
2022/08/02 02:09:45;;;;;;;2.60;1.10;;;25.60;96.50;;;;;;5053331;28;20114;-70
2022/08/02 02:12:12;;;;;;;;;;;25.70;96.60;;;;;;5054016;28;20025;-70
2022/08/02 02:14:39;;;;;;;4.38;1.00;;;25.60;96.80;;;;;;5053235;28;19904;-70
2022/08/02 02:17:07;;;;;;;4.75;1.30;;;25.60;97.00;;;;;;5053213;28;20029;-70
2022/08/02 02:19:36;;;;;;;4.35;1.20;;;25.60;97.00;;;;;;5053632;28;20021;-69
2022/08/02 02:22:02;;;;;;;2.13;1.00;;;25.50;97.20;;;;;;5053240;28;20032;-70
2022/08/02 02:24:28;;;;;;;;;;;25.60;97.30;;;;;;5053430;28;20056;-70
2022/08/02 02:26:54;;;;;;;;;;;25.60;97.30;;;;;;5053943;28;19905;-70
2022/08/02 02:29:23;;;;;;;2.67;1.17;;;25.50;97.50;;;;;;5053214;28;20276;-70
2022/08/02 02:31:52;;;;;;;1.92;0.90;;;25.50;97.40;;;;;;5052097;28;20029;-69
2022/08/02 02:34:34;;;;;;;3.53;1.08;;;25.50;97.50;;;;;;5052834;28;20377;-70
2022/08/02 02:37:04;;;;;;;4.82;1.20;;;25.50;97.40;;;;;;5053250;28;20037;-70
2022/08/02 02:39:32;;;;;;;2.72;1.13;;;25.50;97.40;;;;;;5053161;28;20029;-70
2022/08/02 02:42:02;;;;;;;3.90;1.17;;;25.50;97.50;;;;;;5053121;28;20036;-69
2022/08/02 02:44:30;;;;;;;3.55;1.30;;;25.50;97.60;;;;;;5052666;28;20021;-70
2022/08/02 02:46:57;;;;;;;4.40;1.17;;;25.50;97.70;;;;;;5052675;28;20269;-70
2022/08/02 02:49:25;;;;;;;2.00;1.10;;;25.40;97.80;;;;;;5052928;28;20036;-70
2022/08/02 02:51:52;;;;;;;2.97;1.20;;;25.30;98.10;;;;;;5052679;28;20021;-70
2022/08/02 02:54:19;;;;;;;3.53;0.90;;;25.40;98.40;;;;;;5053098;28;20449;-70
2022/08/02 02:56:46;;;;;;;3.45;1.23;;;25.40;98.60;;;;;;5051615;28;20068;-70
2022/08/02 02:59:14;;;;;;;3.55;1.10;;;25.40;98.70;;;;;;5051663;28;20481;-70
2022/08/02 03:01:40;;;;;;;2.22;1.30;;;25.40;99.10;;;;;;5053476;28;20032;-70
2022/08/02 03:04:09;;;;;;;1.85;0.95;;;25.40;99.50;;;;;;5052887;28;20342;-70
2022/08/02 03:06:39;;;;;;;2.00;1.08;;;25.30;99.40;;;;;;5053319;28;20024;-70
2022/08/02 03:09:06;;;;;;;2.25;1.20;;;25.30;99.80;;;;;;5053325;28;20048;-70
2022/08/02 03:11:34;;;;;;;4.78;1.20;;;25.30;99.90;;;;;;5053279;28;20053;-71
2022/08/02 03:14:03;;;;;;;3.05;1.20;;;25.30;99.90;;;;;;5051532;28;20029;-70
2022/08/02 03:16:29;;;;;;;3.83;1.20;;;25.20;99.90;;;;;;5051366;28;20445;-70
2022/08/02 03:18:57;;;;;;;2.53;1.20;;;25.20;99.90;;;;;;5053010;28;20117;-70
2022/08/02 03:21:23;;;;;;;2.20;1.17;;;25.20;99.90;;;;;;5053000;28;20028;-70
2022/08/02 03:23:50;;;;;;;2.42;1.20;;;25.10;99.90;;;;;;5052711;28;20064;-70
2022/08/02 03:26:16;;;;;;;3.45;1.10;;;25.10;99.90;;;;;;5053122;28;20033;-70
2022/08/02 03:28:45;;;;;;;2.22;1.10;;;25.00;99.90;;;;;;5052727;28;20017;-71
2022/08/02 03:31:11;;;;;;;1.88;1.00;;;25.00;99.90;;;;;;5052850;28;20075;-70
2022/08/02 03:33:38;;;;;;;5.63;1.42;;;24.90;99.90;;;;;;5052572;28;20028;-71
2022/08/02 03:36:14;;;;;;;3.60;1.20;;;24.90;99.90;;;;;;5052233;28;20025;-70
2022/08/02 03:38:41;;;;;;;5.28;1.17;;;24.80;99.90;;;;;;5052581;28;20025;-72
2022/08/02 03:41:11;;;;;;;5.00;1.23;;;24.80;99.90;;;;;;5052646;28;20033;-70
2022/08/02 03:43:38;;;;;;;3.67;1.20;;;24.80;99.90;;;;;;5052199;28;20025;-70
2022/08/02 03:46:07;;;;;;;3.15;1.50;;;24.80;99.90;;;;;;5052232;28;20033;-70
2022/08/02 03:48:35;;;;;;;2.83;1.23;;;24.80;99.90;;;;;;5052922;28;20489;-70
2022/08/02 03:51:02;;;;;;;2.47;1.20;;;24.70;99.90;;;;;;5053217;28;20021;-70
2022/08/02 03:53:28;;;;;;;3.20;1.25;;;24.70;99.90;;;;;;5052467;28;20017;-70
2022/08/02 03:55:55;;;;;;;2.80;1.20;;;24.60;99.90;;;;;;5052286;28;20033;-70
2022/08/02 03:58:22;;;;;;;2.33;1.13;;;24.60;99.90;;;;;;5052491;28;20071;-70
2022/08/02 04:00:48;;;;;;;3.95;1.38;;;24.70;99.90;;;;;;5052255;28;20029;-70
2022/08/02 04:03:15;;;;;;;4.22;1.40;;;24.70;99.90;;;;;;5052631;28;20021;-71
2022/08/02 04:05:41;;;;;;;5.03;1.27;;;24.70;99.90;;;;;;5052613;28;20056;-70
2022/08/02 04:08:07;;;;;;;4.57;1.40;;;24.80;99.90;;;;;;5052103;28;20112;-70
2022/08/02 04:13:20;;;;;;;5.25;1.40;;;24.90;99.90;;;;;;5051984;28;20035;-70
2022/08/02 04:15:49;;;;;;;2.70;1.13;;;25.00;99.90;;;;;;5051973;28;20067;-70
2022/08/02 04:18:18;;;;;;;2.83;1.15;;;25.00;99.90;;;;;;5052174;28;20037;-72
2022/08/02 04:20:47;;;;;;;3.95;1.20;;;25.00;99.90;;;;;;5052414;28;20017;-70
2022/08/02 04:23:14;;;;;;;3.70;1.30;;;25.00;99.90;;;;;;5051339;28;20083;-70
2022/08/02 04:25:40;;;;;;;;;;;25.10;99.90;;;;;;5053229;28;20438;-71
2022/08/02 04:28:08;;;;;;;4.43;1.70;;;25.10;99.90;;;;;;5052352;28;19911;-70
2022/08/02 04:30:35;;;;;;;5.80;1.40;;;25.10;99.90;;;;;;5052639;28;20025;-70
2022/08/02 04:33:01;;;;;;;2.60;1.30;;;25.10;99.90;;;;;;5052205;28;20029;-70
2022/08/02 04:35:28;;;;;;;6.00;1.20;;;25.20;99.90;;;;;;5052270;28;20072;-69
2022/08/02 04:37:54;;;;;;;;;;;25.20;99.90;;;;;;5053316;28;20025;-70
2022/08/02 04:40:20;;;;;;;2.53;1.30;;;25.20;99.90;;;;;;5052824;28;20007;-70
2022/08/02 04:42:46;;;;;;;3.42;1.20;;;25.20;99.90;;;;;;5052803;28;20258;-70
2022/08/02 04:45:13;;;;;;;4.68;1.20;;;25.20;99.90;;;;;;5052834;28;20017;-70
2022/08/02 04:47:39;;;;;;;4.97;1.45;;;25.30;99.90;;;;;;5052817;28;20025;-70
2022/08/02 04:50:06;;;;;;;3.65;1.50;;;25.30;99.90;;;;;;5053248;28;20031;-70
2022/08/02 04:52:32;;;;;;;;;;;25.30;99.90;;;;;;5052086;28;20350;-69
2022/08/02 04:54:58;;;;;;;2.88;1.00;;;25.50;99.90;;;;;;5052808;28;20353;-70
2022/08/02 05:00:10;;;;;;;3.55;1.20;;;25.40;99.90;;;;;;5056793;28;20040;-70
2022/08/02 05:02:36;;;;;;;2.70;1.27;;;25.40;99.90;;;;;;5057060;28;20509;-70
2022/08/02 05:05:02;;;;;;;4.95;1.60;;;25.40;99.90;;;;;;5057165;28;20025;-70
2022/08/02 05:07:28;;;;;;;;;;;25.60;99.90;;;;;;5057160;28;20547;-70
2022/08/02 05:09:54;;;;;;;;;;;25.60;99.90;;;;;;5057101;28;19952;-70
2022/08/02 05:12:21;;;;;;;3.75;1.30;;;25.70;99.90;;;;;;5056683;28;19905;-70
2022/08/02 05:14:48;;;;;;;2.38;1.20;;;25.70;99.90;;;;;;5057008;28;20451;-70
2022/08/02 05:17:14;;;;;;;10.52;1.50;;;25.70;99.90;;;;;;5056655;28;20037;-70
2022/08/02 05:19:40;;;;;;;;;;;25.90;99.90;;;;;;5057401;28;20021;-70
2022/08/02 05:22:06;;;;;;;;;;;26.20;99.90;;;;;;5055156;28;19935;-70
2022/08/02 05:24:32;;;;;;;5.22;1.48;;;26.60;99.90;;;;;;5055720;28;20038;-70
2022/08/02 05:26:58;;;;;;;4.78;1.40;;;27.60;99.90;;;;;;5054667;28;20410;-70
2022/08/02 05:29:24;;;;;;;3.47;1.30;;;29.00;98.00;;;;;;5056238;28;20158;-71
2022/08/02 05:31:51;;;;;;;7.00;1.20;;;30.40;96.80;;;;;;5055977;28;20507;-70
2022/08/02 05:34:16;;;;;;;;;;;31.20;94.70;;;;;;5056134;28;20029;-70
2022/08/02 05:36:42;;;;;;;7.22;1.50;;;31.80;94.10;;;;;;5055797;28;19913;-71
2022/08/02 05:39:08;;;;;;;9.15;1.70;;;32.70;93.10;;;;;;5056455;28;20025;-69
2022/08/02 05:41:35;;;;;;;10.40;1.95;;;33.20;92.50;;;;;;5055707;28;20254;-70
2022/08/02 05:44:01;;;;;;;;;;;33.30;91.80;;;;;;5056251;28;20028;-69
2022/08/02 05:46:27;;;;;;;7.50;1.42;;;33.80;91.00;;;;;;5053955;28;19908;-69
2022/08/02 05:48:53;;;;;;;;;;;34.60;90.40;;;;;;5056072;28;20350;-70
2022/08/02 05:51:27;;;;;;;7.88;1.73;;;35.60;88.90;;;;;;5054780;28;19908;-70
2022/08/02 05:54:05;;;;;;;9.38;1.38;;;35.50;87.80;;;;;;5055256;28;20526;-70
2022/08/02 05:56:34;;;;;;;10.88;1.50;;;36.30;86.30;;;;;;5055311;28;20060;-70
2022/08/02 05:59:13;;;;;;;3.90;1.20;;;36.60;85.60;;;;;;5055147;28;20013;-70
2022/08/02 06:01:42;;;;;;;4.43;1.38;;;35.90;85.20;;;;;;5055535;28;20033;-70
2022/08/02 06:04:10;;;;;;;3.72;1.20;;;36.30;86.10;;;;;;5054789;28;20025;-70
2022/08/02 06:06:42;;;;;;;6.60;1.10;;;36.70;84.40;;;;;;5055181;28;20033;-70
2022/08/02 06:09:13;;;;;;;6.45;1.10;;;36.70;83.80;;;;;;5055169;28;20027;-70
2022/08/02 06:11:46;;;;;;;4.63;1.00;;;37.50;82.40;;;;;;5055178;28;20100;-70
2022/08/02 06:14:12;;;;;;;5.60;1.30;;;38.90;80.50;;;;;;5055321;28;20024;-70
2022/08/02 06:16:39;;;;;;;7.28;1.40;;;39.20;79.40;;;;;;5055189;28;20477;-70
2022/08/02 06:19:05;;;;;;;6.10;1.20;;;40.40;76.70;;;;;;5054809;28;20021;-71
2022/08/02 06:21:31;;;;;;;9.10;1.60;;;39.60;75.60;;;;;;5055177;28;20033;-71
2022/08/02 06:23:58;;;;;;;5.50;1.42;;;40.40;75.30;;;;;;5054917;28;20106;-71
2022/08/02 06:26:25;;;;;;;4.10;1.45;;;41.00;73.30;;;;;;5054804;28;20035;-71
2022/08/02 06:28:54;;;;;;;6.68;1.20;;;42.40;71.60;;;;;;5054626;28;20017;-71
2022/08/02 06:31:20;;;;;;;3.67;1.13;;;43.50;68.70;;;;;;5055076;28;20021;-71
2022/08/02 06:33:46;;;;;;;7.90;1.10;;;44.60;66.90;;;;;;5054971;28;20048;-71
2022/08/02 06:36:19;;;;;;;4.75;1.23;;;42.50;67.80;;;;;;5054679;28;20377;-71
2022/08/02 06:39:02;;;;;;;5.85;1.30;;;42.40;68.70;;;;;;5055389;28;20029;-71
2022/08/02 06:41:36;;;;;;;4.03;1.10;;;44.00;66.50;;;;;;5055335;28;20052;-71
2022/08/02 06:44:03;;;;;;;4.30;0.90;;;45.40;64.70;;;;;;5055294;28;20381;-71
2022/08/02 06:46:29;;;;;;;7.22;1.17;;;45.40;62.40;;;;;;5055019;28;20021;-71
2022/08/02 06:48:56;;;;;;;5.65;0.90;;;45.40;61.90;;;;;;5054586;28;20025;-71
2022/08/02 06:51:22;;;;;;;1.95;0.80;;;45.30;62.20;;;;;;5055155;28;20481;-71
2022/08/02 06:53:49;;;;;;;5.60;1.20;;;44.60;61.90;;;;;;5055065;28;20032;-71
2022/08/02 06:56:15;;;;;;;2.47;0.90;;;44.60;62.10;;;;;;5054859;28;20029;-71
2022/08/02 06:58:41;;;;;;;5.82;1.00;;;45.60;61.50;;;;;;5054466;28;20065;-71
2022/08/02 07:01:08;;;;;;;4.10;1.20;;;45.90;60.50;;;;;;5054803;28;20029;-71
2022/08/02 07:03:36;;;;;;;4.72;0.90;;;46.60;59.10;;;;;;5054239;28;20037;-71
2022/08/02 07:06:03;;;;;;;5.85;1.20;;;47.40;58.40;;;;;;5054866;28;20067;-71
2022/08/02 07:08:32;;;;;;;7.90;1.58;;;48.20;57.40;;;;;;5054287;28;20476;-71
2022/08/02 07:11:00;;;;;;;9.10;1.08;;;49.00;56.50;;;;;;5054160;28;20065;-71
2022/08/02 07:13:27;;;;;;;10.15;1.58;;;49.60;55.40;;;;;;5054614;28;20112;-71
2022/08/02 07:15:53;;;;;;;12.32;1.70;;;49.50;54.40;;;;;;5052703;28;20032;-71
2022/08/02 07:18:20;;;;;;;5.68;1.30;;;47.80;55.40;;;;;;5053989;28;20469;-71
2022/08/02 07:20:46;;;;;;;5.25;0.88;;;48.10;55.40;;;;;;5054054;28;20032;-70
2022/08/02 07:23:13;;;;;;;8.02;1.17;;;47.50;55.40;;;;;;5053913;28;20040;-71
2022/08/02 07:25:39;;;;;;;4.35;1.20;;;46.60;56.30;;;;;;5054257;28;20033;-70
2022/08/02 07:28:07;;;;;;;7.22;1.48;;;45.10;58.20;;;;;;5054098;28;20029;-71
2022/08/02 07:30:34;;;;;;;10.88;1.52;;;45.00;59.30;;;;;;5053778;28;20059;-70
2022/08/02 07:33:01;;;;;;;6.40;1.13;;;44.30;59.80;;;;;;5053562;28;20550;-70
2022/08/02 07:35:28;;;;;;;6.15;1.10;;;43.40;60.70;;;;;;5053347;28;20075;-70
2022/08/02 07:37:55;;;;;;;4.45;1.20;;;42.60;61.90;;;;;;5053710;28;20473;-70
2022/08/02 07:40:21;;;;;;;3.75;1.10;;;41.40;63.80;;;;;;5053229;28;20017;-70
2022/08/02 07:42:50;;;;;;;7.90;1.27;;;40.70;65.80;;;;;;5053258;28;20069;-70
2022/08/02 07:45:17;;;;;;;11.70;1.58;;;40.10;67.40;;;;;;5053273;28;20078;-70
2022/08/02 07:47:43;;;;;;;3.90;1.40;;;39.90;68.40;;;;;;5053405;28;20028;-70
2022/08/02 07:50:11;;;;;;;6.50;1.88;;;39.70;69.40;;;;;;5053002;28;20035;-70
2022/08/02 07:52:38;;;;;;;4.78;1.30;;;39.50;70.60;;;;;;5052678;28;20044;-70
2022/08/02 07:55:05;;;;;;;3.88;1.20;;;39.10;71.90;;;;;;5052709;28;20053;-71
2022/08/02 07:57:31;;;;;;;4.43;1.50;;;38.50;73.20;;;;;;5052713;28;20115;-71
2022/08/02 07:59:58;;;;;;;5.13;1.33;;;38.20;74.60;;;;;;5052354;28;20039;-70
2022/08/02 08:02:24;;;;;;;5.60;1.20;;;37.50;77.10;;;;;;5052430;28;20028;-70
2022/08/02 08:04:51;;;;;;;6.47;1.30;;;37.40;77.90;;;;;;5051103;28;20097;-71
2022/08/02 08:07:17;;;;;;;5.45;1.10;;;37.50;77.70;;;;;;5052612;28;20025;-71
2022/08/02 08:09:46;;;;;;;6.35;1.70;;;37.10;78.00;;;;;;5052261;28;20036;-70
2022/08/02 08:12:12;;;;;;;6.35;1.20;;;36.70;78.80;;;;;;5052352;28;20070;-70
2022/08/02 08:14:38;;;;;;;7.03;1.55;;;36.20;79.60;;;;;;5052725;28;20057;-70
2022/08/02 08:17:05;;;;;;;7.18;1.40;;;36.50;79.10;;;;;;5051010;28;20083;-70
2022/08/02 08:19:32;;;;;;;5.30;1.08;;;36.70;78.90;;;;;;5052825;28;20499;-70
2022/08/02 08:22:02;;;;;;;5.32;1.70;;;36.80;78.40;;;;;;5052702;28;20065;-70
2022/08/02 08:24:28;;;;;;;9.50;1.85;;;37.00;78.10;;;;;;5052949;28;20041;-70
2022/08/02 08:26:55;;;;;;;7.72;1.40;;;37.00;76.40;;;;;;5053213;28;20021;-70
2022/08/02 08:29:23;;;;;;;8.82;1.55;;;36.80;77.20;;;;;;5052497;28;20104;-70
2022/08/02 08:31:49;;;;;;;6.85;1.40;;;36.40;75.20;;;;;;5052232;28;20021;-70
2022/08/02 08:34:15;;;;;;;3.92;1.20;;;36.40;76.00;;;;;;5052683;28;20099;-70
2022/08/02 08:36:41;;;;;;;4.20;1.30;;;36.60;75.00;;;;;;5051221;28;20036;-70
2022/08/02 08:39:08;;;;;;;5.25;1.30;;;36.70;75.00;;;;;;5052575;28;20481;-70
2022/08/02 08:41:37;;;;;;;3.72;1.40;;;36.60;75.80;;;;;;5052577;28;20147;-70
2022/08/02 08:44:03;;;;;;;6.80;1.38;;;36.80;77.60;;;;;;5052521;28;20021;-71
2022/08/02 08:46:32;;;;;;;6.38;1.27;;;36.70;77.00;;;;;;5052429;28;20021;-71
2022/08/02 08:49:17;;;;;;;3.70;1.25;;;36.60;76.20;;;;;;5052596;28;20060;-70
2022/08/02 08:51:43;;;;;;;8.68;1.50;;;36.70;76.00;;;;;;5051888;28;20025;-71
2022/08/02 08:54:15;;;;;;;8.50;1.30;;;36.40;74.80;;;;;;5051449;28;20025;-70
2022/08/02 08:56:42;;;;;;;3.65;1.63;;;36.40;74.40;;;;;;5051296;28;20044;-70
2022/08/02 08:59:08;;;;;;;6.13;1.50;;;36.60;74.10;;;;;;5051608;28;20032;-70
2022/08/02 09:01:34;;;;;;;5.05;1.38;;;36.60;73.60;;;;;;5051562;28;20021;-71
2022/08/02 09:04:01;;;;;;;2.80;1.40;;;36.60;72.80;;;;;;5051764;28;20071;-70
2022/08/02 09:06:27;;;;;;;3.00;1.23;;;36.60;72.50;;;;;;5052225;28;20040;-71
2022/08/02 09:08:53;;;;;;;3.65;1.58;;;36.60;71.10;;;;;;5051772;28;20045;-70
2022/08/02 09:11:24;;;;;;;3.85;1.40;;;36.60;67.90;;;;;;5051719;28;20119;-70
2022/08/02 09:13:54;;;;;;;4.55;1.65;;;36.40;66.30;;;;;;5051919;28;20017;-70
2022/08/02 09:16:47;;;;;;;5.82;1.40;;;36.30;68.10;;;;;;5051847;28;20037;-70
2022/08/02 09:19:19;;;;;;;4.25;1.30;;;36.40;68.00;;;;;;5050381;28;20065;-70
2022/08/02 09:21:45;;;;;;;6.82;1.40;;;36.50;67.30;;;;;;5051231;28;20091;-70
2022/08/02 09:24:16;;;;;;;9.88;1.30;;;36.40;66.90;;;;;;5051291;28;20040;-70
2022/08/02 09:26:42;;;;;;;4.95;1.20;;;36.30;67.20;;;;;;5051838;28;20090;-70
2022/08/02 09:29:08;;;;;;;4.78;1.25;;;36.20;67.70;;;;;;5051937;28;20056;-70
2022/08/02 09:31:34;;;;;;;3.85;1.35;;;36.20;67.00;;;;;;5049999;28;20339;-70
2022/08/02 09:34:00;;;;;;;4.93;1.30;;;36.10;67.70;;;;;;5051521;28;20021;-70
2022/08/02 09:36:42;;;;;;;5.22;1.40;;;35.90;68.00;;;;;;5051747;28;20041;-70
2022/08/02 09:39:11;;;;;;;8.45;1.40;;;35.70;68.40;;;;;;5050229;28;20025;-71
2022/08/02 09:41:40;;;;;;;4.13;1.40;;;35.60;67.10;;;;;;5052478;28;20029;-71
2022/08/02 09:44:07;;;;;;;2.80;1.02;;;35.30;69.50;;;;;;5055768;28;20079;-71
2022/08/02 09:46:39;;;;;;;1.88;0.90;;;35.30;69.00;;;;;;5055320;28;20027;-70
2022/08/02 09:49:07;;;;;;;4.00;1.27;;;35.20;69.80;;;;;;5055476;28;20060;-70
2022/08/02 09:51:45;;;;;;;4.68;1.10;;;35.20;68.80;;;;;;5055338;28;20048;-71
2022/08/02 09:54:27;;;;;;;8.18;1.60;;;35.00;68.30;;;;;;5055111;28;20453;-70
2022/08/02 09:56:59;;;;;;;6.38;1.27;;;34.90;67.40;;;;;;5054228;28;20123;-70
2022/08/02 09:59:27;;;;;;;4.40;1.10;;;34.80;68.40;;;;;;5054533;28;20155;-70
2022/08/02 10:01:54;;;;;;;4.07;1.17;;;34.70;67.70;;;;;;5054526;28;20464;-70
2022/08/02 10:04:22;;;;;;;10.98;1.60;;;34.50;67.00;;;;;;5054388;28;20362;-70
2022/08/02 10:06:50;;;;;;;6.80;1.40;;;34.50;66.50;;;;;;5054953;28;20052;-70
2022/08/02 10:09:17;;;;;;;1.83;1.00;;;34.50;66.70;;;;;;5054337;28;20114;-70
2022/08/02 10:11:43;;;;;;;5.15;1.23;;;34.70;66.40;;;;;;5054114;28;20504;-70
2022/08/02 10:14:10;;;;;;;3.97;1.10;;;34.80;65.90;;;;;;5053998;28;20017;-70
2022/08/02 10:16:41;;;;;;;4.97;1.30;;;34.90;65.70;;;;;;5054008;28;20503;-70
2022/08/02 10:19:08;;;;;;;18.88;1.52;;;34.90;65.60;;;;;;5054373;28;20362;-70
2022/08/02 10:22:03;;;;;;;6.57;1.25;;;34.60;65.60;;;;;;5054061;28;20089;-70
2022/08/02 10:24:30;;;;;;;;;;;34.70;65.00;;;;;;5054760;28;20457;-70
2022/08/02 10:26:58;;;;;;;8.35;1.23;;;34.70;65.00;;;;;;5054652;28;20015;-70
2022/08/02 10:29:34;;;;;;;3.92;1.05;;;34.50;65.30;;;;;;5054687;28;20423;-70
2022/08/02 10:32:04;;;;;;;3.08;1.27;;;34.40;66.30;;;;;;5054346;28;20083;-70
2022/08/02 10:34:45;;;;;;;3.45;1.17;;;34.50;64.30;;;;;;5054236;28;20098;-70
2022/08/02 10:37:13;;;;;;;4.20;1.20;;;34.40;64.20;;;;;;5054046;28;20032;-70
2022/08/02 10:39:41;;;;;;;5.43;1.40;;;34.40;64.60;;;;;;5053786;28;20095;-71
2022/08/02 10:42:07;;;;;;;8.48;1.05;;;34.40;65.00;;;;;;5053925;28;20059;-71
2022/08/02 10:44:35;;;;;;;5.50;0.95;;;34.40;65.40;;;;;;5053764;28;20017;-71
2022/08/02 10:47:13;;;;;;;5.05;1.10;;;34.40;65.80;;;;;;5053835;28;20477;-71
2022/08/02 10:49:56;;;;;;;4.00;1.00;;;34.30;65.60;;;;;;5053856;28;20398;-71
2022/08/02 10:52:31;;;;;;;7.60;1.17;;;34.50;65.10;;;;;;5053183;28;20073;-71
2022/08/02 10:55:03;;;;;;;6.13;1.50;;;34.50;65.80;;;;;;5053693;28;20029;-71
2022/08/02 10:57:33;;;;;;;2.90;1.00;;;34.50;65.40;;;;;;5054163;28;20032;-71
2022/08/02 11:00:11;;;;;;;3.13;1.30;;;34.30;65.10;;;;;;5053657;28;20021;-71
2022/08/02 11:02:43;;;;;;;3.28;0.95;;;34.30;65.70;;;;;;5053631;28;20020;-70
2022/08/02 11:05:11;;;;;;;4.43;1.08;;;34.50;66.70;;;;;;5053967;28;20032;-71
2022/08/02 11:07:43;;;;;;;6.75;1.23;;;34.60;67.00;;;;;;5053781;28;20036;-71
2022/08/02 11:10:30;;;;;;;3.58;1.27;;;34.60;68.10;;;;;;5054287;28;20025;-71
2022/08/02 11:13:13;;;;;;;6.93;1.25;;;34.60;68.10;;;;;;5054147;28;20078;-71
2022/08/02 11:15:53;;;;;;;10.98;1.27;;;34.10;67.50;;;;;;5053480;28;20025;-71
2022/08/02 11:18:20;;;;;;;5.10;0.90;;;34.20;68.40;;;;;;5053859;28;20527;-70
2022/08/02 11:20:46;;;;;;;4.72;1.13;;;34.20;67.50;;;;;;5053704;28;20470;-71
2022/08/02 11:23:38;;;;;;;4.30;1.00;;;34.30;67.60;;;;;;5052344;28;20032;-71
2022/08/02 11:26:32;;;;;;;3.58;1.10;;;34.30;66.50;;;;;;5054248;28;20045;-70
2022/08/02 11:29:00;;;;;;;7.45;1.23;;;34.40;66.50;;;;;;5054249;28;20025;-70
2022/08/02 11:31:28;;;;;;;3.22;1.40;;;34.10;66.80;;;;;;5054168;28;20036;-70
2022/08/02 11:33:55;;;;;;;3.33;1.00;;;34.20;65.90;;;;;;5054003;28;20039;-70
2022/08/02 11:36:21;;;;;;;4.18;1.40;;;34.10;66.40;;;;;;5053424;28;20037;-70
2022/08/02 11:38:47;;;;;;;4.93;1.25;;;34.30;67.00;;;;;;5052158;28;20045;-70
2022/08/02 11:41:19;;;;;;;;;;;34.20;65.60;;;;;;5053914;28;20025;-70
2022/08/02 11:43:45;;;;;;;6.35;1.10;;;34.30;65.60;;;;;;5053742;28;19912;-70
2022/08/02 11:46:13;;;;;;;4.63;1.23;;;34.40;64.20;;;;;;5052165;28;20465;-70
2022/08/02 11:48:40;;;;;;;7.68;1.35;;;34.40;64.30;;;;;;5053286;28;20087;-70
2022/08/02 11:51:08;;;;;;;2.47;0.90;;;34.40;64.10;;;;;;5053340;28;20103;-71
2022/08/02 11:53:42;;;;;;;6.75;1.60;;;34.30;62.30;;;;;;5052957;28;20029;-70
2022/08/02 11:56:09;;;;;;;16.17;1.75;;;34.50;63.10;;;;;;5053074;28;20109;-70
2022/08/02 11:58:36;;;;;;;4.55;1.10;;;34.40;63.50;;;;;;5052687;28;20047;-70
2022/08/02 12:01:03;;;;;;;5.50;1.13;;;34.40;66.10;;;;;;5052993;28;20017;-70
2022/08/02 12:03:39;;;;;;;7.63;1.25;;;34.40;69.00;;;;;;5052605;28;20474;-70
2022/08/02 12:06:05;;;;;;;3.45;1.17;;;34.50;71.80;;;;;;5052952;28;20017;-70
2022/08/02 12:08:32;;;;;;;5.45;1.30;;;34.40;72.90;;;;;;5052968;28;20036;-70
2022/08/02 12:11:01;;;;;;;4.10;1.00;;;34.50;73.30;;;;;;5053119;28;20528;-70
2022/08/02 12:13:40;;;;;;;3.55;1.20;;;34.50;75.70;;;;;;5052308;28;20078;-70
2022/08/02 12:21:41;;;;;;;5.50;1.40;;;34.60;78.80;;;;;;5053351;28;20090;-70
2022/08/02 12:24:08;;;;;;;7.07;1.40;;;34.60;79.30;;;;;;5052491;28;20422;-71
2022/08/02 12:26:47;;;;;;;6.25;1.13;;;34.60;80.80;;;;;;5052629;28;20065;-71
2022/08/02 12:29:13;;;;;;;4.28;1.40;;;34.50;82.60;;;;;;5052706;28;20017;-70
2022/08/02 12:31:43;;;;;;;8.40;1.35;;;34.60;83.30;;;;;;5053178;28;20035;-70
2022/08/02 12:34:19;;;;;;;7.03;1.50;;;34.50;80.00;;;;;;5053022;28;20036;-70
2022/08/02 12:36:57;;;;;;;;;;;34.60;83.60;;;;;;5053484;28;20069;-70
2022/08/02 12:39:33;;;;;;;7.85;1.73;;;34.40;84.90;;;;;;5052735;28;19950;-70
2022/08/02 12:41:59;;;;;;;7.05;1.20;;;34.40;86.00;;;;;;5053158;28;20025;-70
2022/08/02 12:44:25;;;;;;;41.35;3.05;;;34.20;88.60;;;;;;5052772;28;20029;-70
2022/08/02 12:47:06;;;;;;;7.85;1.40;;;33.80;90.10;;;;;;5053221;28;20036;-70
2022/08/02 12:49:32;;;;;;;6.00;1.40;;;33.70;90.10;;;;;;5052681;28;20469;-70
2022/08/02 12:51:59;;;;;;;6.65;1.35;;;33.70;90.80;;;;;;5052657;28;20067;-70
2022/08/02 12:54:39;;;;;;;7.60;1.40;;;33.80;91.80;;;;;;5052310;28;20025;-70
2022/08/02 12:57:13;;;;;;;6.53;1.83;;;33.90;91.90;;;;;;5052243;28;20048;-70
2022/08/02 12:59:41;;;;;;;5.90;1.40;;;33.90;92.40;;;;;;5052029;28;20362;-70
2022/08/02 13:02:09;;;;;;;6.63;1.42;;;33.90;92.50;;;;;;5052083;28;20032;-70
2022/08/02 13:04:36;;;;;;;5.20;1.48;;;34.10;92.30;;;;;;5052376;28;20028;-70
2022/08/02 13:07:03;;;;;;;5.05;1.33;;;34.10;92.40;;;;;;5051987;28;20017;-71
2022/08/02 13:09:36;;;;;;;4.60;1.40;;;33.90;92.50;;;;;;5051982;28;20104;-71
2022/08/02 13:12:04;;;;;;;4.78;1.33;;;34.10;92.00;;;;;;5052417;28;20457;-72